KEFD/EFD METAR and TAF weather

Enter ICAO airport designator
Station Type Date Time Source
KEFD METAR 2018/12/10 18:50 UTC NOAA

KEFD 101850Z 31005KT 10SM CLR 13/M01 A3038


Station Type Date Time Source
KEFD Decoded METAR 2018/12/10 18:50 UTC NOAA

Houston / Ellington, TX, United States (KEFD) 29-36N 095-10W
Dec 10, 2018 - 01:50 PM EST / 2018.12.10 1850 UTC
Wind: from the NW (310 degrees) at 6 MPH (5 KT):0
Visibility: 10 mile(s):0
Sky conditions: clear
Temperature: 55 F (13 C)
Dew Point: 30 F (-1 C)
Relative Humidity: 37%
Pressure (altimeter): 30.38 in. Hg (1028 hPa)
ob: KEFD 101850Z 31005KT 10SM CLR 13/M01 A3038
cycle: 19

Station Type Date Time Source
KEFD TAF 2018/12/10 12:15 UTC NOAA

TAF KEFD 101200Z 1012/1118 VRB06KT 9999 FEW030 QNH3032INS
BECMG 1014/1015 33009KT 9999 SKC QNH3036INS
BECMG 1101/1102 VRB06KT 9999 SKC QNH3040INS TX15/1021Z TN05/1012Z


Example: see airport list